Time;durP1;ratioP1;P1;durP2;ratioP2;P2;SDS_P1;SDS_P2;PMS_P1;PMS_P2;Temp;Humidity;BMP_temperature;BMP_pressure;BME280_temperature;BME280_humidity;BME280_pressure;Samples;Min_cycle;Max_cycle;Signal;HPM_P1;HPM_P2
2022/01/20 00:01:23;;;;;;;;;;;2.80;99.90;;;;;;5005115;28;20018;-79
2022/01/20 00:03:51;;;;;;;;;;;2.80;99.90;;;;;;5010545;28;20016;-79
2022/01/20 00:07:06;;;;;;;;;;;2.80;99.90;;;;;;5004878;28;20384;-79
2022/01/20 00:09:46;;;;;;;;;;;2.80;99.90;;;;;;4999840;28;20008;-79
2022/01/20 00:25:50;;;;;;;;;;;2.80;99.90;;;;;;5004296;28;19929;-78
2022/01/20 00:26:40;;;;;;;;;;;2.80;99.90;;;;;;5005188;28;19983;-79
2022/01/20 00:29:13;;;;;;;;;;;2.80;99.90;;;;;;5007404;28;20312;-79
2022/01/20 00:31:47;;;;;;;;;;;2.80;99.90;;;;;;5010555;28;19933;-79
2022/01/20 00:34:19;;;;;;;;;;;2.80;99.90;;;;;;4992209;28;19980;-79
2022/01/20 00:39:30;;;;;;;;;;;2.70;99.90;;;;;;4995958;28;19929;-79
2022/01/20 00:41:57;;;;;;;;;;;2.70;99.90;;;;;;4996057;28;20504;-79
2022/01/20 00:44:25;;;;;;;;;;;2.70;99.90;;;;;;5000771;28;19925;-79
2022/01/20 00:46:51;;;;;;;;;;;2.70;99.90;;;;;;5004277;28;19992;-79
2022/01/20 00:49:21;;;;;;;;;;;2.80;99.90;;;;;;5002908;28;19948;-79
2022/01/20 00:51:48;;;;;;;;;;;2.80;99.90;;;;;;5004949;28;19934;-79
2022/01/20 00:54:15;;;;;;;;;;;2.70;99.90;;;;;;4999281;28;19925;-79
2022/01/20 00:56:42;;;;;;;;;;;2.80;99.90;;;;;;5007166;28;19925;-79
2022/01/20 00:59:09;;;;;;;;;;;2.70;99.90;;;;;;5002332;28;19948;-79
2022/01/20 01:01:35;;;;;;;;;;;2.70;99.90;;;;;;5005500;28;19940;-79
2022/01/20 01:04:03;;;;;;;;;;;2.70;99.90;;;;;;5000993;28;19925;-79
2022/01/20 01:06:43;;;;;;;;;;;2.70;99.90;;;;;;5001520;28;19933;-79
2022/01/20 01:09:11;;;;;;;;;;;2.70;99.90;;;;;;5014513;28;19925;-79
2022/01/20 01:11:44;;;;;;;;;;;2.70;99.90;;;;;;5008630;28;19983;-79
2022/01/20 01:14:11;;;;;;;;;;;2.70;99.90;;;;;;5029574;28;20423;-79
2022/01/20 01:20:02;;;;;;;;;;;2.70;99.90;;;;;;5015614;28;20297;-79
2022/01/20 01:22:22;;;;;;;;;;;2.70;99.90;;;;;;5010466;28;19937;-79
2022/01/20 01:24:51;;;;;;;;;;;2.70;99.90;;;;;;5015349;28;20027;-79
2022/01/20 01:27:18;;;;;;;;;;;2.70;99.90;;;;;;5003880;28;19932;-79
2022/01/20 01:30:01;;;;;;;;;;;2.70;99.90;;;;;;5025288;28;20410;-79
2022/01/20 01:32:43;;;;;;;;;;;2.70;99.90;;;;;;5012092;28;19965;-79
2022/01/20 01:35:11;;;;;;;;;;;2.70;99.90;;;;;;5002969;28;19980;-79
2022/01/20 01:40:20;;;;;;;;;;;2.70;99.90;;;;;;5000435;28;19926;-79
2022/01/20 01:42:50;;;;;;;;;;;2.70;99.90;;;;;;5000824;28;19933;-79
2022/01/20 01:45:18;;;;;;;;;;;2.60;99.90;;;;;;4999375;28;19934;-79
2022/01/20 01:47:45;;;;;;;;;;;2.70;99.90;;;;;;5021341;28;19926;-79
2022/01/20 01:50:15;;;;;;;;;;;2.60;99.90;;;;;;5011994;28;19932;-79
2022/01/20 01:52:44;;;;;;;;;;;2.60;99.90;;;;;;5003117;28;19929;-79
2022/01/20 01:55:11;;;;;;;;;;;2.60;99.90;;;;;;5018433;28;19926;-79
2022/01/20 01:57:40;;;;;;;;;;;2.60;99.90;;;;;;5016394;28;19940;-79
2022/01/20 02:00:08;;;;;;;;;;;2.60;99.90;;;;;;5009452;28;19925;-79
2022/01/20 02:02:44;;;;;;;;;;;2.60;99.90;;;;;;5023660;28;19930;-79
2022/01/20 02:05:19;;;;;;;;;;;2.60;99.90;;;;;;5009851;28;20077;-79
2022/01/20 02:08:29;;;;;;;;;;;2.60;99.90;;;;;;5001988;28;19925;-79
2022/01/20 02:19:07;;;;;;;;;;;2.60;99.90;;;;;;4977097;28;19921;-79
2022/01/20 02:21:48;;;;;;;;;;;2.60;99.90;;;;;;5015046;28;19979;-79
2022/01/20 02:24:18;;;;;;;;;;;2.60;99.90;;;;;;5009538;28;20019;-79
2022/01/20 02:26:45;;;;;;;;;;;2.60;99.90;;;;;;4996492;28;20423;-79
2022/01/20 02:29:18;;;;;;;;;;;2.60;99.90;;;;;;4998224;28;19926;-79
2022/01/20 02:31:46;;;;;;;;;;;2.50;99.90;;;;;;5006448;28;19932;-80
2022/01/20 02:34:16;;;;;;;;;;;2.60;99.90;;;;;;5013092;28;19938;-79
2022/01/20 02:36:46;;;;;;;;;;;2.60;99.90;;;;;;4998437;28;20102;-79
2022/01/20 02:39:28;;;;;;;;;;;2.50;99.90;;;;;;5005372;28;19933;-79
2022/01/20 02:44:51;;;;;;;;;;;2.60;99.90;;;;;;4998087;28;20075;-79
2022/01/20 02:47:18;;;;;;;;;;;2.50;99.90;;;;;;4998415;28;19930;-79
2022/01/20 02:49:45;;;;;;;;;;;2.50;99.90;;;;;;5002102;28;19926;-79
2022/01/20 02:52:12;;;;;;;;;;;2.50;99.90;;;;;;4999739;28;20324;-79
2022/01/20 02:54:41;;;;;;;;;;;2.50;99.90;;;;;;5005932;28;19926;-80
2022/01/20 02:57:09;;;;;;;;;;;2.50;99.90;;;;;;5004514;28;19930;-79
2022/01/20 02:59:38;;;;;;;;;;;2.50;99.90;;;;;;5010006;28;20403;-79
2022/01/20 03:02:06;;;;;;;;;;;2.40;99.90;;;;;;5005897;28;19934;-79
2022/01/20 03:04:33;;;;;;;;;;;2.40;99.90;;;;;;5023401;28;19969;-79
2022/01/20 03:07:03;;;;;;;;;;;2.50;99.90;;;;;;5017152;28;19925;-79
2022/01/20 03:09:30;;;;;;;;;;;2.40;99.90;;;;;;5026013;28;20044;-79
2022/01/20 03:11:59;;;;;;;;;;;2.40;99.90;;;;;;5004663;28;19925;-79
2022/01/20 03:14:25;;;;;;;;;;;2.40;99.90;;;;;;5029942;28;19925;-79
2022/01/20 03:16:53;;;;;;;;;;;2.40;99.90;;;;;;5009443;28;20301;-79
2022/01/20 03:19:20;;;;;;;;;;;2.40;99.90;;;;;;4998304;28;20402;-79
2022/01/20 03:21:47;;;;;;;;;;;2.40;99.90;;;;;;5009553;28;19925;-79
2022/01/20 03:24:14;;;;;;;;;;;2.40;99.90;;;;;;5013391;28;19987;-79
2022/01/20 03:26:42;;;;;;;;;;;2.40;99.90;;;;;;5005625;28;19925;-79
2022/01/20 03:29:11;;;;;;;;;;;2.40;99.90;;;;;;5024292;28;19933;-79
2022/01/20 03:31:38;;;;;;;;;;;2.30;99.90;;;;;;5008073;28;19980;-79
2022/01/20 03:34:06;;;;;;;;;;;2.30;99.90;;;;;;5004297;28;20020;-79
2022/01/20 03:36:35;;;;;;;;;;;2.40;99.90;;;;;;5002965;28;19929;-78
2022/01/20 03:39:28;;;;;;;;;;;2.40;99.90;;;;;;5007191;28;19930;-79
2022/01/20 03:41:55;;;;;;;;;;;2.40;99.90;;;;;;5007085;28;19961;-79
2022/01/20 03:44:29;;;;;;;;;;;2.30;99.90;;;;;;5001240;28;19932;-79
2022/01/20 03:46:57;;;;;;;;;;;2.40;99.90;;;;;;5007581;28;19929;-79
2022/01/20 03:49:34;;;;;;;;;;;2.30;99.90;;;;;;5022853;28;20521;-79
2022/01/20 03:52:00;;;;;;;;;;;2.30;99.90;;;;;;5012404;28;20344;-79
2022/01/20 03:54:29;;;;;;;;;;;2.30;99.90;;;;;;5006381;28;19925;-79
2022/01/20 03:57:28;;;;;;;;;;;2.30;99.90;;;;;;5011088;28;19932;-79
2022/01/20 04:00:04;;;;;;;;;;;2.30;99.90;;;;;;4996769;28;19933;-78
2022/01/20 04:02:56;;;;;;;;;;;2.30;99.90;;;;;;5008048;28;20028;-79
2022/01/20 04:05:55;;;;;;;;;;;2.30;99.90;;;;;;5001623;28;19929;-78
2022/01/20 04:08:41;;;;;;;;;;;2.30;99.90;;;;;;5009079;28;19976;-79
2022/01/20 04:11:09;;;;;;;;;;;2.30;99.90;;;;;;5005404;28;19925;-79
2022/01/20 04:13:36;;;;;;;;;;;2.30;99.90;;;;;;5004174;28;20028;-78
2022/01/20 04:16:13;;;;;;;;;;;2.30;99.90;;;;;;4998657;28;19934;-79
2022/01/20 04:18:41;;;;;;;;;;;2.30;99.90;;;;;;5009812;28;19925;-79
2022/01/20 04:21:08;;;;;;;;;;;2.30;99.90;;;;;;5003514;28;19926;-78
2022/01/20 04:23:35;;;;;;;;;;;2.30;99.90;;;;;;4999512;28;19960;-79
2022/01/20 04:26:02;;;;;;;;;;;2.30;99.90;;;;;;5008291;28;19932;-79
2022/01/20 04:28:29;;;;;;;;;;;2.30;99.90;;;;;;4992579;28;19933;-79
2022/01/20 04:30:56;;;;;;;;;;;2.30;99.90;;;;;;5006026;28;19936;-79
2022/01/20 04:33:24;;;;;;;;;;;2.30;99.90;;;;;;5006447;28;19980;-79
2022/01/20 04:35:51;;;;;;;;;;;2.30;99.90;;;;;;5006621;28;19929;-79
2022/01/20 04:38:18;;;;;;;;;;;2.30;99.90;;;;;;5007926;28;19926;-79
2022/01/20 04:40:45;;;;;;;;;;;2.30;99.90;;;;;;5006884;28;20048;-79
2022/01/20 04:43:12;;;;;;;;;;;2.30;99.90;;;;;;4998965;28;20025;-79
2022/01/20 04:45:44;;;;;;;;;;;2.30;99.90;;;;;;5001996;28;20401;-79
2022/01/20 04:48:25;;;;;;;;;;;2.30;99.90;;;;;;5004414;28;19929;-79
2022/01/20 04:59:11;;;;;;;;;;;2.20;99.90;;;;;;4999612;28;19930;-79
2022/01/20 05:01:44;;;;;;;;;;;2.20;99.90;;;;;;5001993;28;19926;-79
2022/01/20 05:04:19;;;;;;;;;;;2.30;99.90;;;;;;5003549;28;19988;-79
2022/01/20 05:07:08;;;;;;;;;;;2.30;99.90;;;;;;5005883;28;19929;-79
2022/01/20 05:09:36;;;;;;;;;;;2.20;99.90;;;;;;5002878;28;19940;-79
2022/01/20 05:12:06;;;;;;;;;;;2.30;99.90;;;;;;4999892;28;19957;-79
2022/01/20 05:14:35;;;;;;;;;;;2.20;99.90;;;;;;5000912;28;19988;-79
2022/01/20 05:17:03;;;;;;;;;;;2.20;99.90;;;;;;5001317;28;19972;-79
2022/01/20 05:19:31;;;;;;;;;;;2.20;99.90;;;;;;4994479;28;19925;-79
2022/01/20 05:21:58;;;;;;;;;;;2.20;99.90;;;;;;5014312;28;20397;-78
2022/01/20 05:24:31;;;;;;;;;;;2.20;99.90;;;;;;4987645;28;19964;-79
2022/01/20 05:26:58;;;;;;;;;;;2.20;99.90;;;;;;5004974;28;19930;-79
2022/01/20 05:29:28;;;;;;;;;;;2.20;99.90;;;;;;4997407;28;19925;-79
2022/01/20 05:31:56;;;;;;;;;;;2.20;99.90;;;;;;5002790;28;20425;-79
2022/01/20 05:34:24;;;;;;;;;;;2.20;99.90;;;;;;5025261;28;19933;-80
2022/01/20 05:36:52;;;;;;;;;;;2.20;99.90;;;;;;4999488;28;19936;-77
2022/01/20 05:39:19;;;;;;;;;;;2.20;99.90;;;;;;5004898;28;19976;-79
2022/01/20 05:41:48;;;;;;;;;;;2.20;99.90;;;;;;5014873;28;19933;-80
2022/01/20 05:44:25;;;;;;;;;;;2.20;99.90;;;;;;4979842;28;19937;-80
2022/01/20 05:46:53;;;;;;;;;;;2.20;99.90;;;;;;4990764;28;20625;-80
2022/01/20 05:49:46;;;;;;;;;;;2.20;99.90;;;;;;4999663;28;20460;-79
2022/01/20 05:52:15;;;;;;;;;;;2.20;99.90;;;;;;4999093;28;19929;-79
2022/01/20 05:54:42;;;;;;;;;;;2.40;99.90;;;;;;5013031;28;19949;-79
2022/01/20 05:57:11;;;;;;;;;;;2.50;99.90;;;;;;5013102;28;19926;-79
2022/01/20 05:59:43;;;;;;;;;;;2.50;99.90;;;;;;4990749;28;19929;-80
2022/01/20 06:02:14;;;;;;;;;;;2.60;99.90;;;;;;5011548;28;19933;-78
2022/01/20 06:04:41;;;;;;;;;;;2.50;99.90;;;;;;5009885;28;20298;-79
2022/01/20 06:07:08;;;;;;;;;;;2.50;99.90;;;;;;4996716;28;19934;-79
2022/01/20 06:09:35;;;;;;;;;;;2.40;99.90;;;;;;4996552;28;20443;-78
2022/01/20 06:12:03;;;;;;;;;;;2.40;99.90;;;;;;4992578;28;19929;-79
2022/01/20 06:14:31;;;;;;;;;;;2.40;99.90;;;;;;4989249;28;19925;-79
2022/01/20 06:16:58;;;;;;;;;;;2.40;99.90;;;;;;4997958;28;19929;-78
2022/01/20 06:19:25;;;;;;;;;;;2.40;99.90;;;;;;5014576;28;20020;-79
2022/01/20 06:21:52;;;;;;;;;;;2.60;99.90;;;;;;4995991;28;20020;-79
2022/01/20 06:24:19;;;;;;;;;;;2.60;99.90;;;;;;5001430;28;19926;-79
2022/01/20 06:26:46;;;;;;;;;;;2.60;99.90;;;;;;4999392;28;19937;-79
2022/01/20 06:29:13;;;;;;;;;;;2.60;99.90;;;;;;4994176;28;19933;-79
2022/01/20 06:31:42;;;;;;;;;;;2.60;99.90;;;;;;5007100;28;20143;-78
2022/01/20 06:34:10;;;;;;;;;;;2.70;99.90;;;;;;5000526;28;19980;-80
2022/01/20 06:36:37;;;;;;;;;;;2.70;99.90;;;;;;4990618;28;19933;-79
2022/01/20 06:39:05;;;;;;;;;;;2.80;99.90;;;;;;5017167;28;20404;-80
2022/01/20 06:41:37;;;;;;;;;;;2.80;99.90;;;;;;4991020;28;20371;-80
2022/01/20 06:44:05;;;;;;;;;;;2.70;99.90;;;;;;5001414;28;19930;-79
2022/01/20 06:46:32;;;;;;;;;;;2.60;99.90;;;;;;5010727;28;19947;-78
2022/01/20 06:49:19;;;;;;;;;;;2.60;99.90;;;;;;5016353;28;19937;-79
2022/01/20 06:51:59;;;;;;;;;;;2.50;99.90;;;;;;5000799;28;20369;-78
2022/01/20 06:54:26;;;;;;;;;;;2.50;99.90;;;;;;5008933;28;20404;-79
2022/01/20 06:56:53;;;;;;;;;;;2.50;99.90;;;;;;5004328;28;19975;-78
2022/01/20 06:59:20;;;;;;;;;;;2.50;99.90;;;;;;4998060;28;19929;-80
2022/01/20 07:01:49;;;;;;;;;;;2.50;99.90;;;;;;5016675;28;19953;-79
2022/01/20 07:04:29;;;;;;;;;;;2.40;99.90;;;;;;4997947;28;19993;-78
2022/01/20 07:06:55;;;;;;;;;;;2.40;99.90;;;;;;5001848;28;19941;-79
2022/01/20 07:09:41;;;;;;;;;;;2.40;99.90;;;;;;5004685;28;19933;-79
2022/01/20 07:12:17;;;;;;;;;;;2.40;99.90;;;;;;4996836;28;19936;-80
2022/01/20 07:14:44;;;;;;;;;;;2.40;99.90;;;;;;5013012;28;19929;-79
2022/01/20 07:17:11;;;;;;;;;;;2.40;99.90;;;;;;5011003;28;19961;-78
2022/01/20 07:19:45;;;;;;;;;;;2.40;99.90;;;;;;5009792;28;20419;-78
2022/01/20 07:22:14;;;;;;;;;;;2.40;99.90;;;;;;5005093;28;19925;-79
2022/01/20 07:24:41;;;;;;;;;;;2.40;99.90;;;;;;5003247;28;19926;-79
2022/01/20 07:27:17;;;;;;;;;;;2.40;99.90;;;;;;5005473;28;19969;-80
2022/01/20 07:29:44;;;;;;;;;;;2.70;99.90;;;;;;5013490;28;19933;-79
2022/01/20 07:32:11;;;;;;;;;;;2.70;99.90;;;;;;4995944;28;20007;-80
2022/01/20 07:36:43;;;;;;;;;;;2.90;99.90;;;;;;5094507;27;20393;-79
2022/01/20 07:39:11;;;;;;;;;;;2.90;99.90;;;;;;5061637;28;19928;-79
2022/01/20 07:41:38;;;;;;;;;;;2.90;99.90;;;;;;5072596;28;19924;-78
2022/01/20 07:44:22;;;;;;;;;;;2.80;99.90;;;;;;5078135;28;20480;-78
2022/01/20 07:47:12;;;;;;;;;;;2.90;99.90;;;;;;5075505;28;19939;-79
2022/01/20 07:49:39;;;;;;;;;;;2.80;99.90;;;;;;5074341;28;19927;-79
2022/01/20 07:52:10;;;;;;;;;;;2.80;99.90;;;;;;5072507;28;19931;-79
2022/01/20 07:54:37;;;;;;;;;;;2.70;99.90;;;;;;5101795;27;19932;-79
2022/01/20 07:57:05;;;;;;;;;;;2.70;99.90;;;;;;5092371;28;20028;-79
2022/01/20 07:59:32;;;;;;;;;;;2.70;99.90;;;;;;5112965;27;19931;-78
2022/01/20 08:01:59;;;;;;;;;;;2.80;99.90;;;;;;5097101;28;19931;-79
2022/01/20 08:04:26;;;;;;;;;;;2.70;99.90;;;;;;5081872;28;19932;-79
2022/01/20 08:06:56;;;;;;;;;;;2.70;99.90;;;;;;5084181;28;20362;-79
2022/01/20 08:09:26;;;;;;;;;;;2.70;99.90;;;;;;5081294;28;19981;-79
2022/01/20 08:12:07;;;;;;;;;;;2.70;99.90;;;;;;5079633;28;19924;-78
2022/01/20 08:15:03;;;;;;;;;;;2.70;99.90;;;;;;5085880;28;20305;-77
2022/01/20 08:17:50;;;;;;;;;;;2.60;99.90;;;;;;5101195;28;20415;-77
2022/01/20 08:20:17;;;;;;;;;;;2.70;99.90;;;;;;5079291;28;19986;-77
2022/01/20 08:22:51;;;;;;;;;;;2.60;99.90;;;;;;5097155;28;19935;-76
2022/01/20 08:25:19;;;;;;;;;;;2.60;99.90;;;;;;5108003;28;19930;-77
2022/01/20 08:27:48;;;;;;;;;;;2.60;99.90;;;;;;5083811;28;20404;-77
2022/01/20 08:30:16;;;;;;;;;;;2.60;99.90;;;;;;5080415;28;19924;-77
2022/01/20 08:32:44;;;;;;;;;;;2.60;99.90;;;;;;5074472;28;19924;-77
2022/01/20 08:35:32;;;;;;;;;;;2.60;99.90;;;;;;5096880;28;19932;-76
2022/01/20 08:38:06;;;;;;;;;;;2.60;99.90;;;;;;5078260;28;19943;-77
2022/01/20 08:40:35;;;;;;;;;;;2.60;99.90;;;;;;5077527;28;19967;-76
2022/01/20 08:43:03;;;;;;;;;;;2.60;99.90;;;;;;5076010;28;20392;-77
2022/01/20 08:45:31;;;;;;;;;;;2.60;99.90;;;;;;5080868;28;19927;-77
2022/01/20 08:47:59;;;;;;;;;;;2.50;99.90;;;;;;5080377;28;19924;-77
2022/01/20 08:50:39;;;;;;;;;;;2.50;99.90;;;;;;5060031;28;19999;-76
2022/01/20 08:53:06;;;;;;;;;;;2.50;99.90;;;;;;5084466;28;19928;-76
2022/01/20 08:55:36;;;;;;;;;;;2.50;99.90;;;;;;5057748;28;19924;-79
2022/01/20 08:58:10;;;;;;;;;;;2.50;99.90;;;;;;5083277;28;19981;-79
2022/01/20 09:00:37;;;;;;;;;;;2.50;99.90;;;;;;5064591;28;19924;-78
2022/01/20 09:03:06;;;;;;;;;;;2.40;99.90;;;;;;5064617;28;19933;-79
2022/01/20 09:05:34;;;;;;;;;;;2.40;99.90;;;;;;5063463;28;19925;-79
2022/01/20 09:08:12;;;;;;;;;;;2.40;99.90;;;;;;5064421;28;19928;-79
2022/01/20 09:10:45;;;;;;;;;;;2.40;99.90;;;;;;5097567;28;20026;-78
2022/01/20 09:16:02;;;;;;;;;;;2.40;99.90;;;;;;5091027;27;19925;-79
2022/01/20 09:18:39;;;;;;;;;;;2.40;99.90;;;;;;5109306;22;20528;-82
2022/01/20 09:21:06;;;;;;;;;;;2.40;99.90;;;;;;5036531;28;20878;-82
2022/01/20 09:23:34;;;;;;;;;;;2.40;99.90;;;;;;5044497;28;19925;-81
2022/01/20 09:26:02;;;;;;;;;;;2.40;99.90;;;;;;5035615;28;20386;-81
2022/01/20 09:28:34;;;;;;;;;;;2.30;99.90;;;;;;5038756;28;20036;-81
2022/01/20 09:31:02;;;;;;;;;;;2.30;99.90;;;;;;5042562;28;20644;-82
2022/01/20 09:33:29;;;;;;;;;;;2.30;99.90;;;;;;5032578;28;21620;-79
2022/01/20 09:35:58;;;;;;;;;;;2.40;99.90;;;;;;5041202;28;20202;-79
2022/01/20 09:38:28;;;;;;;;;;;2.40;99.90;;;;;;5054495;28;20348;-84
2022/01/20 09:40:55;;;;;;;;;;;2.40;99.90;;;;;;5050338;28;19971;-83
2022/01/20 09:43:27;;;;;;;;;;;2.40;99.90;;;;;;5047158;28;19932;-83
2022/01/20 09:45:55;;;;;;;;;;;2.40;99.90;;;;;;5048343;28;19968;-85
2022/01/20 09:48:24;;;;;;;;;;;2.40;99.90;;;;;;5063163;28;19925;-83
2022/01/20 09:51:14;;;;;;;;;;;2.40;99.90;;;;;;5043238;28;19939;-84
2022/01/20 09:54:10;;;;;;;;;;;2.40;99.90;;;;;;5035785;28;19925;-83
2022/01/20 09:56:57;;;;;;;;;;;2.40;99.90;;;;;;5044297;28;19940;-83
2022/01/20 09:59:26;;;;;;;;;;;2.40;99.90;;;;;;5053026;28;19929;-84
2022/01/20 10:01:56;;;;;;;;;;;2.40;99.90;;;;;;5040476;28;19933;-83
2022/01/20 10:04:31;;;;;;;;;;;2.40;99.90;;;;;;5039506;28;20379;-83
2022/01/20 10:07:06;;;;;;;;;;;2.50;99.90;;;;;;5010206;28;19925;-84
2022/01/20 10:09:38;;;;;;;;;;;2.50;99.90;;;;;;5030915;28;20423;-85
2022/01/20 10:12:14;;;;;;;;;;;2.50;99.90;;;;;;5011661;28;19973;-84
2022/01/20 10:14:51;;;;;;;;;;;2.50;99.90;;;;;;5018258;28;20008;-83
2022/01/20 10:17:37;;;;;;;;;;;2.50;99.90;;;;;;5022148;28;19948;-83
2022/01/20 10:20:06;;;;;;;;;;;2.50;99.90;;;;;;5032240;28;19984;-84
2022/01/20 10:22:41;;;;;;;;;;;2.50;99.90;;;;;;5032530;28;19940;-85
2022/01/20 10:25:34;;;;;;;;;;;2.50;99.90;;;;;;5036449;28;20446;-83
2022/01/20 10:28:09;;;;;;;;;;;2.50;99.90;;;;;;5014071;28;19925;-84
2022/01/20 10:30:37;;;;;;;;;;;2.50;99.90;;;;;;5015391;28;19940;-83
2022/01/20 10:33:08;;;;;;;;;;;2.50;99.90;;;;;;5033530;28;20119;-83
2022/01/20 10:35:39;;;;;;;;;;;2.50;99.90;;;;;;5032684;28;19932;-83
2022/01/20 10:38:27;;;;;;;;;;;2.50;99.90;;;;;;5028308;28;19929;-83
2022/01/20 10:40:59;;;;;;;;;;;2.50;99.90;;;;;;5029442;28;19933;-83
2022/01/20 10:43:31;;;;;;;;;;;2.50;99.90;;;;;;5016762;28;19966;-83
2022/01/20 10:46:04;;;;;;;;;;;2.50;99.90;;;;;;5032640;28;19933;-83
2022/01/20 10:48:32;;;;;;;;;;;2.50;99.90;;;;;;5017399;28;19925;-83
2022/01/20 10:51:00;;;;;;;;;;;2.50;99.90;;;;;;5006829;28;20751;-83
2022/01/20 10:53:27;;;;;;;;;;;2.50;99.90;;;;;;5026439;28;20325;-83
2022/01/20 10:56:04;;;;;;;;;;;2.60;99.90;;;;;;5017124;28;19933;-83
2022/01/20 10:58:31;;;;;;;;;;;2.60;99.90;;;;;;5036781;28;20379;-81
2022/01/20 11:01:00;;;;;;;;;;;2.60;99.90;;;;;;5028649;28;20372;-83
2022/01/20 11:03:33;;;;;;;;;;;2.60;99.90;;;;;;5024207;28;19933;-83
2022/01/20 11:06:01;;;;;;;;;;;2.60;99.90;;;;;;5035779;28;19929;-85
2022/01/20 11:08:43;;;;;;;;;;;2.60;99.90;;;;;;5021458;28;19983;-82
2022/01/20 11:11:11;;;;;;;;;;;2.70;99.90;;;;;;5032453;28;19937;-80
2022/01/20 11:14:13;;;;;;;;;;;2.60;99.90;;;;;;4995402;28;20403;-85
2022/01/20 11:16:41;;;;;;;;;;;2.70;99.90;;;;;;5026495;28;19948;-82
2022/01/20 11:19:20;;;;;;;;;;;2.70;99.90;;;;;;5026572;28;20023;-83
2022/01/20 11:21:47;;;;;;;;;;;2.70;99.90;;;;;;5037251;28;19995;-83
2022/01/20 11:24:18;;;;;;;;;;;2.70;99.90;;;;;;5016738;28;20024;-84
2022/01/20 11:27:05;;;;;;;;;;;2.70;99.90;;;;;;5024903;28;19986;-83
2022/01/20 11:29:48;;;;;;;;;;;2.70;99.90;;;;;;5034026;28;19935;-83
2022/01/20 11:32:35;;;;;;;;;;;2.70;99.90;;;;;;5020928;28;19932;-84
2022/01/20 11:35:21;;;;;;;;;;;2.70;99.90;;;;;;5032906;28;20004;-83
2022/01/20 11:37:56;;;;;;;;;;;2.80;99.90;;;;;;5023939;28;19933;-83
2022/01/20 11:40:23;;;;;;;;;;;2.80;99.90;;;;;;5026885;28;19924;-85
2022/01/20 11:42:58;;;;;;;;;;;2.80;99.90;;;;;;5019427;28;19987;-85
2022/01/20 11:45:31;;;;;;;;;;;2.80;99.90;;;;;;5033011;28;20296;-86
2022/01/20 11:47:58;;;;;;;;;;;2.80;99.90;;;;;;5038058;28;19975;-83
2022/01/20 11:50:27;;;;;;;;;;;2.80;99.90;;;;;;5019193;28;19925;-83
2022/01/20 11:52:54;;;;;;;;;;;2.80;99.90;;;;;;5019380;28;19933;-84
2022/01/20 11:55:21;;;;;;;;;;;2.80;99.90;;;;;;5020828;28;19991;-83
2022/01/20 11:57:48;;;;;;;;;;;2.80;99.90;;;;;;5030469;28;20366;-83
2022/01/20 12:00:21;;;;;;;;;;;2.80;99.90;;;;;;5022976;28;19976;-81
2022/01/20 12:02:48;;;;;;;;;;;2.80;99.90;;;;;;5015564;28;19925;-81
2022/01/20 12:05:28;;;;;;;;;;;2.80;99.90;;;;;;5017490;28;20007;-80
2022/01/20 12:08:18;;;;;;;;;;;2.80;99.90;;;;;;5016339;28;20548;-82
2022/01/20 12:10:57;;;;;;;;;;;2.80;99.90;;;;;;5011247;28;20012;-83
2022/01/20 12:13:24;;;;;;;;;;;2.80;99.90;;;;;;5016091;28;20395;-83
2022/01/20 12:15:52;;;;;;;;;;;2.90;99.90;;;;;;5017600;28;19932;-83
2022/01/20 12:18:19;;;;;;;;;;;2.90;99.90;;;;;;5020079;28;19930;-84
2022/01/20 12:20:46;;;;;;;;;;;2.90;99.90;;;;;;5033711;28;19925;-86
2022/01/20 12:23:13;;;;;;;;;;;2.90;99.90;;;;;;5032870;28;20031;-83
2022/01/20 12:25:41;;;;;;;;;;;2.90;99.90;;;;;;5026660;28;19932;-83
2022/01/20 12:28:09;;;;;;;;;;;2.90;99.90;;;;;;5043091;28;19929;-85
2022/01/20 12:30:37;;;;;;;;;;;2.90;99.90;;;;;;5029997;28;19933;-83
2022/01/20 12:33:06;;;;;;;;;;;2.90;99.90;;;;;;5015716;28;19965;-84
2022/01/20 12:35:41;;;;;;;;;;;2.90;99.90;;;;;;5015779;28;20113;-83
2022/01/20 12:38:16;;;;;;;;;;;2.90;99.90;;;;;;5020580;28;20137;-83
2022/01/20 12:40:44;;;;;;;;;;;2.90;99.90;;;;;;5022930;28;19933;-86
2022/01/20 12:43:11;;;;;;;;;;;2.90;99.90;;;;;;5013675;28;20375;-84
2022/01/20 12:45:56;;;;;;;;;;;3.00;99.90;;;;;;5037040;28;19943;-84
2022/01/20 12:48:23;;;;;;;;;;;3.00;99.90;;;;;;5026206;28;20389;-83
2022/01/20 12:50:52;;;;;;;;;;;3.00;99.90;;;;;;5022947;28;20024;-83
2022/01/20 12:53:20;;;;;;;;;;;3.00;99.90;;;;;;5012583;28;19929;-83
2022/01/20 12:55:53;;;;;;;;;;;3.00;99.90;;;;;;5021334;28;20446;-83
2022/01/20 12:58:20;;;;;;;;;;;3.00;99.90;;;;;;5036033;28;19925;-86
2022/01/20 13:00:58;;;;;;;;;;;3.00;99.90;;;;;;5019805;28;19925;-83
2022/01/20 13:03:33;;;;;;;;;;;3.00;99.90;;;;;;5019814;28;19952;-83
2022/01/20 13:06:00;;;;;;;;;;;3.00;99.90;;;;;;5034235;28;19939;-83
2022/01/20 13:08:32;;;;;;;;;;;2.90;99.90;;;;;;5035088;28;20402;-83
2022/01/20 13:11:04;;;;;;;;;;;2.90;99.90;;;;;;5028173;28;19960;-83
2022/01/20 13:13:31;;;;;;;;;;;3.00;99.90;;;;;;5026265;28;19929;-83
2022/01/20 13:15:58;;;;;;;;;;;3.00;99.90;;;;;;5031077;28;19925;-83
2022/01/20 13:18:25;;;;;;;;;;;3.00;99.90;;;;;;5032621;28;19925;-83
2022/01/20 13:20:55;;;;;;;;;;;2.90;99.90;;;;;;5015002;28;19999;-82
2022/01/20 13:26:04;;;;;;;;;;;2.90;99.90;;;;;;5018221;28;19951;-83
2022/01/20 13:28:31;;;;;;;;;;;2.90;99.90;;;;;;5019344;28;19925;-83
2022/01/20 13:30:58;;;;;;;;;;;2.90;99.90;;;;;;5033171;28;22316;-83
2022/01/20 13:33:27;;;;;;;;;;;2.90;99.90;;;;;;5018277;28;19948;-83
2022/01/20 13:35:56;;;;;;;;;;;2.90;99.90;;;;;;5018440;28;20370;-86
2022/01/20 13:38:30;;;;;;;;;;;3.00;99.90;;;;;;5016832;28;19932;-86
2022/01/20 13:41:06;;;;;;;;;;;2.90;99.90;;;;;;5017613;28;19925;-83
2022/01/20 13:46:29;;;;;;;;;;;2.90;99.90;;;;;;5018992;28;20414;-85
2022/01/20 13:49:06;;;;;;;;;;;2.90;99.90;;;;;;5024727;28;20355;-82
2022/01/20 13:51:33;;;;;;;;;;;2.90;99.90;;;;;;5032987;28;20539;-87
2022/01/20 13:54:01;;;;;;;;;;;3.00;99.90;;;;;;5022552;28;19926;-83
2022/01/20 13:56:28;;;;;;;;;;;3.00;99.90;;;;;;5013236;28;20583;-82
2022/01/20 13:59:03;;;;;;;;;;;2.90;99.90;;;;;;5016915;28;19932;-85
2022/01/20 14:01:31;;;;;;;;;;;2.90;99.90;;;;;;5007151;28;19940;-82
2022/01/20 14:03:58;;;;;;;;;;;2.90;99.90;;;;;;5031121;28;19933;-82
2022/01/20 14:06:25;;;;;;;;;;;2.90;99.90;;;;;;5013600;28;19933;-85
2022/01/20 14:08:52;;;;;;;;;;;2.90;99.90;;;;;;5021387;28;19933;-82
2022/01/20 14:11:19;;;;;;;;;;;2.80;99.90;;;;;;5010355;28;20301;-88
2022/01/20 14:13:49;;;;;;;;;;;2.80;99.90;;;;;;5014525;28;20802;-87
2022/01/20 14:16:18;;;;;;;;;;;2.80;99.90;;;;;;5013879;28;20071;-82
2022/01/20 14:18:47;;;;;;;;;;;2.80;99.90;;;;;;5012298;28;20276;-83
2022/01/20 14:21:15;;;;;;;;;;;2.80;99.90;;;;;;5026400;28;19933;-85
2022/01/20 14:23:42;;;;;;;;;;;2.80;99.90;;;;;;5018442;28;20043;-82
2022/01/20 14:26:12;;;;;;;;;;;2.80;99.90;;;;;;5018691;28;19999;-84
2022/01/20 14:28:39;;;;;;;;;;;2.70;99.90;;;;;;5036925;28;19933;-83
2022/01/20 14:31:06;;;;;;;;;;;2.70;99.90;;;;;;5009840;28;19925;-83
2022/01/20 14:33:35;;;;;;;;;;;2.70;99.90;;;;;;5022509;28;20283;-85
2022/01/20 14:36:02;;;;;;;;;;;2.70;99.90;;;;;;5016957;28;20338;-83
2022/01/20 14:38:29;;;;;;;;;;;2.70;99.90;;;;;;5022503;28;20362;-82
2022/01/20 14:40:57;;;;;;;;;;;2.70;99.90;;;;;;5013977;28;20035;-85
2022/01/20 14:43:24;;;;;;;;;;;2.70;99.90;;;;;;5025647;28;19925;-83
2022/01/20 14:45:52;;;;;;;;;;;2.60;99.90;;;;;;5015146;28;20397;-83
2022/01/20 14:48:19;;;;;;;;;;;2.60;99.90;;;;;;5021727;28;19925;-82
2022/01/20 14:50:48;;;;;;;;;;;2.60;99.90;;;;;;5016397;28;19925;-83
2022/01/20 14:53:15;;;;;;;;;;;2.60;99.90;;;;;;5011904;28;20418;-82
2022/01/20 14:55:42;;;;;;;;;;;2.60;99.90;;;;;;5022029;28;19925;-82
2022/01/20 14:58:09;;;;;;;;;;;2.60;99.90;;;;;;5040364;28;19931;-85
2022/01/20 15:00:36;;;;;;;;;;;2.60;99.90;;;;;;5021422;28;19933;-84
2022/01/20 15:03:04;;;;;;;;;;;2.60;99.90;;;;;;5025599;28;19992;-82
2022/01/20 15:05:32;;;;;;;;;;;2.60;99.90;;;;;;5019231;28;19933;-83
2022/01/20 15:08:00;;;;;;;;;;;2.50;99.90;;;;;;5028659;28;19925;-83
2022/01/20 15:10:27;;;;;;;;;;;2.50;99.90;;;;;;5015209;28;19940;-83
2022/01/20 15:13:00;;;;;;;;;;;2.50;99.90;;;;;;5022504;28;20623;-83
2022/01/20 15:15:27;;;;;;;;;;;2.50;99.90;;;;;;5018766;28;19930;-83
2022/01/20 15:17:55;;;;;;;;;;;2.50;99.90;;;;;;5035831;28;19957;-83
2022/01/20 15:20:22;;;;;;;;;;;2.50;99.90;;;;;;5034201;28;20021;-82
2022/01/20 15:22:49;;;;;;;;;;;2.50;99.90;;;;;;5032616;28;19929;-85
2022/01/20 15:25:18;;;;;;;;;;;2.40;99.90;;;;;;5019001;28;19925;-83
2022/01/20 15:27:45;;;;;;;;;;;2.40;99.90;;;;;;5019229;28;19948;-83
2022/01/20 15:30:12;;;;;;;;;;;2.40;99.90;;;;;;5023218;28;20020;-82
2022/01/20 15:32:39;;;;;;;;;;;2.40;99.90;;;;;;5024585;28;19925;-83
2022/01/20 15:35:07;;;;;;;;;;;2.40;99.90;;;;;;5035464;28;19936;-85
2022/01/20 15:37:35;;;;;;;;;;;2.40;99.90;;;;;;5024791;28;20462;-83
2022/01/20 15:40:02;;;;;;;;;;;2.30;99.90;;;;;;5024931;28;19926;-83
2022/01/20 15:42:31;;;;;;;;;;;2.30;99.90;;;;;;5025427;28;19992;-84
2022/01/20 15:44:58;;;;;;;;;;;2.30;99.90;;;;;;5043896;28;20011;-83